Time;durP1;ratioP1;P1;durP2;ratioP2;P2;SDS_P1;SDS_P2;PMS_P1;PMS_P2;Temp;Humidity;BMP_temperature;BMP_pressure;BME280_temperature;BME280_humidity;BME280_pressure;Samples;Min_cycle;Max_cycle;Signal;HPM_P1;HPM_P2
2022/03/16 00:01:59;;;;;;;65.87;35.57;;;;;;;9.71;41.38;95632.13;5031632;28;20184;-78
2022/03/16 00:04:25;;;;;;;67.93;36.30;;;;;;;9.69;41.48;95627.16;5031087;28;20203;-78
2022/03/16 00:06:54;;;;;;;61.83;34.03;;;;;;;9.62;41.52;95620.84;5029923;28;20192;-78
2022/03/16 00:09:21;;;;;;;59.50;33.37;;;;;;;9.66;41.48;95636.75;5017372;28;20566;-79
2022/03/16 00:11:48;;;;;;;68.50;34.50;;;;;;;9.61;41.57;95626.88;5050884;28;20210;-79
2022/03/16 00:14:17;;;;;;;67.00;31.57;;;;;;;9.62;41.70;95620.84;5048459;28;20187;-78
2022/03/16 00:16:45;;;;;;;62.03;31.73;;;;;;;9.60;41.74;95624.44;5051148;28;20650;-78
2022/03/16 00:19:11;;;;;;;54.17;31.47;;;;;;;9.61;41.54;95628.63;5050712;28;20194;-76
2022/03/16 00:21:38;;;;;;;60.90;32.23;;;;;;;9.59;41.59;95620.25;5049074;28;20198;-79
2022/03/16 00:24:05;;;;;;;67.87;30.63;;;;;;;9.58;41.77;95621.97;5033729;28;20219;-76
2022/03/16 00:26:32;;;;;;;61.43;29.07;;;;;;;9.58;41.82;95606.66;5034441;28;20199;-76
2022/03/16 00:29:00;;;;;;;60.27;30.33;;;;;;;9.48;41.61;95593.72;5030758;28;20195;-82
2022/03/16 00:31:28;;;;;;;53.77;29.40;;;;;;;9.56;41.70;95598.31;5028369;28;20250;-79
2022/03/16 00:33:55;;;;;;;51.47;27.17;;;;;;;9.59;41.81;95615.16;5041423;28;20191;-79
2022/03/16 00:36:22;;;;;;;48.47;27.33;;;;;;;9.57;41.87;95597.38;5031989;28;20683;-77
2022/03/16 00:38:49;;;;;;;57.40;29.40;;;;;;;9.54;41.87;95580.56;5043349;28;20188;-81
2022/03/16 00:41:18;;;;;;;53.73;28.40;;;;;;;9.52;42.16;95571.34;5050130;28;20572;-77
2022/03/16 00:43:45;;;;;;;46.13;27.53;;;;;;;9.49;42.17;95563.91;5032480;28;20196;-78
2022/03/16 00:46:12;;;;;;;46.00;25.57;;;;;;;9.54;42.22;95567.78;5030448;28;20215;-79
2022/03/16 00:48:41;;;;;;;49.53;26.80;;;;;;;9.52;42.16;95563.69;5030513;28;20199;-80
2022/03/16 00:51:10;;;;;;;46.73;26.97;;;;;;;9.47;42.26;95558.09;5032378;28;20215;-79
2022/03/16 00:53:39;;;;;;;45.60;26.00;;;;;;;9.48;42.21;95545.22;5043402;28;20245;-79
2022/03/16 00:56:07;;;;;;;45.13;26.87;;;;;;;9.46;42.21;95544.53;5030510;28;20191;-77
2022/03/16 00:58:34;;;;;;;48.00;25.40;;;;;;;9.50;41.94;95552.78;5033406;28;20270;-76
2022/03/16 01:01:01;;;;;;;42.47;26.03;;;;;;;9.49;42.20;95546.84;5036910;28;20202;-76
2022/03/16 01:03:29;;;;;;;40.27;24.50;;;;;;;9.40;42.44;95534.75;5046675;28;20580;-78
2022/03/16 01:05:57;;;;;;;49.60;24.90;;;;;;;9.46;42.38;95544.53;5050258;28;20194;-77
2022/03/16 01:08:24;;;;;;;47.03;25.73;;;;;;;9.41;42.36;95528.72;5040739;28;20180;-78
2022/03/16 01:10:51;;;;;;;46.47;25.43;;;;;;;9.44;42.32;95540.44;5050408;28;20218;-76
2022/03/16 01:13:18;;;;;;;50.90;25.43;;;;;;;9.43;42.37;95538.81;5048047;28;20195;-80
2022/03/16 01:15:45;;;;;;;47.73;24.60;;;;;;;9.40;42.41;95526.28;5050201;28;20199;-75
2022/03/16 01:18:12;;;;;;;43.60;24.83;;;;;;;9.43;42.46;95531.16;5049393;28;20198;-75
2022/03/16 01:20:38;;;;;;;52.43;24.43;;;;;;;9.44;42.57;95527.69;5050224;28;20637;-76
2022/03/16 01:23:07;;;;;;;43.77;25.33;;;;;;;9.41;42.66;95517.69;5049622;28;20581;-75
2022/03/16 01:25:33;;;;;;;45.03;24.67;;;;;;;9.42;42.81;95511.66;5049534;28;20191;-76
2022/03/16 01:28:00;;;;;;;46.43;24.77;;;;;;;9.40;42.85;95506.66;5050141;28;20558;-81
2022/03/16 01:30:27;;;;;;;45.13;23.77;;;;;;;9.38;42.82;95503.41;5050173;28;20198;-81
2022/03/16 01:32:54;;;;;;;45.10;24.37;;;;;;;9.30;43.04;95498.84;5041594;28;20227;-81
2022/03/16 01:35:21;;;;;;;49.27;23.80;;;;;;;9.31;42.79;95497.13;5030387;28;20677;-81
2022/03/16 01:37:48;;;;;;;37.83;21.77;;;;;;;9.38;42.92;95510.25;5029593;28;20223;-79
2022/03/16 01:40:16;;;;;;;44.73;23.30;;;;;;;9.37;43.16;95509.47;5029629;28;20195;-79
2022/03/16 01:42:43;;;;;;;37.50;22.57;;;;;;;9.35;42.98;95503.63;5030055;28;20242;-79
2022/03/16 01:45:10;;;;;;;36.87;21.27;;;;;;;9.29;43.23;95489.56;5029639;28;20666;-79
2022/03/16 01:47:37;;;;;;;41.23;22.77;;;;;;;9.33;43.17;95485.06;5030041;28;20203;-78
2022/03/16 01:50:06;;;;;;;37.13;21.90;;;;;;;9.37;43.02;95486.47;5029714;28;20199;-80
2022/03/16 01:52:33;;;;;;;37.03;22.07;;;;;;;9.36;43.14;95481.47;5034206;28;20207;-79
2022/03/16 01:55:04;;;;;;;36.87;20.27;;;;;;;9.35;43.35;95490.06;5049548;28;20256;-77
2022/03/16 01:57:34;;;;;;;35.80;21.30;;;;;;;9.32;43.01;95478.31;5049675;28;20665;-79
2022/03/16 02:00:01;;;;;;;34.13;20.63;;;;;;;9.32;43.43;95475.75;5049678;28;20626;-77
2022/03/16 02:02:28;;;;;;;33.60;19.57;;;;;;;9.32;43.23;95480.88;5049561;28;20195;-79
2022/03/16 02:04:54;;;;;;;35.77;20.83;;;;;;;9.33;43.17;95479.97;5049616;28;20674;-76
2022/03/16 02:07:21;;;;;;;36.63;19.50;;;;;;;9.33;43.22;95474.84;5049690;28;20195;-78
2022/03/16 02:09:49;;;;;;;36.97;19.27;;;;;;;9.32;43.28;95469.84;5049313;28;20666;-78
2022/03/16 02:12:16;;;;;;;30.57;17.83;;;;;;;9.32;43.09;95462.19;5049592;28;20211;-81
2022/03/16 02:14:44;;;;;;;31.67;20.30;;;;;;;9.30;43.24;95463.13;5048146;28;20192;-77
2022/03/16 02:17:11;;;;;;;40.50;20.60;;;;;;;9.32;43.18;95465.56;5035110;28;20199;-79
2022/03/16 02:19:37;;;;;;;35.07;18.93;;;;;;;9.34;43.16;95460.34;5053232;28;20581;-79
2022/03/16 02:22:09;;;;;;;32.47;19.27;;;;;;;9.27;43.08;95455.69;5037904;28;20274;-80
2022/03/16 02:24:39;;;;;;;30.73;18.30;;;;;;;9.33;43.20;95458.72;5034747;28;20199;-78
2022/03/16 02:27:06;;;;;;;31.17;18.63;;;;;;;9.30;43.23;95436.78;5053288;28;20195;-76
2022/03/16 02:29:34;;;;;;;39.80;20.00;;;;;;;9.32;43.17;95447.69;5052985;28;20199;-76
2022/03/16 02:32:01;;;;;;;29.30;18.17;;;;;;;9.33;43.18;95456.19;5052888;28;20238;-77
2022/03/16 02:34:28;;;;;;;27.53;17.60;;;;;;;9.30;43.13;95458.00;5052782;28;20659;-77
2022/03/16 02:36:54;;;;;;;35.33;18.80;;;;;;;9.25;43.05;95443.97;5052594;28;20242;-77
2022/03/16 02:39:22;;;;;;;33.10;20.07;;;;;;;9.33;43.23;95446.78;5052462;28;20202;-75
2022/03/16 02:41:52;;;;;;;35.27;19.83;;;;;;;9.33;43.16;95443.41;5052506;28;20248;-77
2022/03/16 02:44:19;;;;;;;32.17;18.83;;;;;;;9.27;43.25;95434.44;5052075;28;20870;-77
2022/03/16 02:46:45;;;;;;;34.07;20.10;;;;;;;9.30;43.16;95441.88;5032330;28;20196;-76
2022/03/16 02:49:12;;;;;;;30.60;18.00;;;;;;;9.25;43.23;95449.88;5032780;28;20204;-77
2022/03/16 02:51:39;;;;;;;34.70;20.27;;;;;;;9.33;43.15;95454.44;5032399;28;20223;-75
2022/03/16 02:54:06;;;;;;;32.83;19.53;;;;;;;9.29;43.35;95437.72;5032335;28;20207;-76
2022/03/16 02:56:34;;;;;;;33.00;20.67;;;;;;;9.28;43.32;95439.47;5032615;28;20192;-78
2022/03/16 02:59:02;;;;;;;33.67;20.43;;;;;;;9.32;43.22;95441.78;5032688;28;20594;-75
2022/03/16 03:01:29;;;;;;;37.77;21.37;;;;;;;9.26;43.24;95418.31;5032202;28;20199;-75
2022/03/16 03:03:56;;;;;;;33.50;20.93;;;;;;;9.30;43.26;95422.28;5032729;28;20180;-75
2022/03/16 03:06:23;;;;;;;34.30;20.73;;;;;;;9.34;43.30;95429.72;5050797;28;20198;-75
2022/03/16 03:08:51;;;;;;;39.67;23.00;;;;;;;9.33;43.36;95412.78;5052055;28;20634;-76
2022/03/16 03:11:18;;;;;;;37.47;23.50;;;;;;;9.29;43.28;95405.34;5051469;28;20195;-75
2022/03/16 03:13:45;;;;;;;41.57;24.53;;;;;;;9.35;43.33;95413.47;5052206;28;20650;-73
2022/03/16 03:16:13;;;;;;;38.37;25.33;;;;;;;9.29;43.42;95405.34;5052206;28;20194;-76
2022/03/16 03:18:40;;;;;;;41.53;24.07;;;;;;;9.29;43.44;95402.00;5051957;28;20191;-76
2022/03/16 03:21:06;;;;;;;40.13;23.27;;;;;;;9.33;43.48;95407.69;5052059;28;20570;-78
2022/03/16 03:23:33;;;;;;;40.80;22.90;;;;;;;9.33;43.58;95408.50;5049800;28;20217;-76
2022/03/16 03:26:00;;;;;;;43.10;23.47;;;;;;;9.33;43.45;95411.03;5051197;28;20696;-75
2022/03/16 03:28:27;;;;;;;45.77;27.10;;;;;;;9.31;43.67;95410.31;5051426;28;20199;-76
2022/03/16 03:30:54;;;;;;;48.07;26.73;;;;;;;9.27;43.75;95399.53;5051843;28;20183;-75
2022/03/16 03:33:22;;;;;;;46.17;27.77;;;;;;;9.33;43.68;95415.34;5047584;28;20216;-75
2022/03/16 03:35:49;;;;;;;47.83;27.13;;;;;;;9.33;43.71;95410.25;5032231;28;20184;-76
2022/03/16 03:38:16;;;;;;;49.13;27.57;;;;;;;9.32;43.82;95411.94;5031319;28;20362;-77
2022/03/16 03:40:43;;;;;;;56.27;27.83;;;;;;;9.34;43.79;95401.66;5032172;28;20203;-79
2022/03/16 03:43:10;;;;;;;49.57;26.53;;;;;;;9.32;43.76;95394.09;5032236;28;20207;-77
2022/03/16 03:45:37;;;;;;;50.90;27.03;;;;;;;9.34;43.67;95406.75;5032414;28;20566;-76
2022/03/16 03:48:04;;;;;;;52.97;27.63;;;;;;;9.36;43.73;95404.88;5032094;28;20191;-75
2022/03/16 03:50:33;;;;;;;47.53;26.33;;;;;;;9.35;43.77;95403.25;5050629;28;20195;-76
2022/03/16 03:52:59;;;;;;;47.57;26.73;;;;;;;9.35;43.55;95395.59;5051422;28;20218;-76
2022/03/16 03:55:26;;;;;;;51.37;27.70;;;;;;;9.35;43.87;95398.16;5051223;28;20198;-77
2022/03/16 03:57:53;;;;;;;54.50;25.97;;;;;;;9.36;43.88;95404.88;5051456;28;20187;-76
2022/03/16 04:00:20;;;;;;;43.90;25.13;;;;;;;9.35;43.94;95401.53;5036162;28;20246;-76
2022/03/16 04:02:49;;;;;;;46.90;26.87;;;;;;;9.32;43.60;95385.63;5033361;28;20195;-76
2022/03/16 04:05:17;;;;;;;48.20;27.10;;;;;;;9.34;43.87;95394.81;5030945;28;20643;-82
2022/03/16 04:07:45;;;;;;;48.83;27.50;;;;;;;9.33;43.90;95388.06;5031220;28;20642;-75
2022/03/16 04:10:13;;;;;;;45.47;24.97;;;;;;;9.27;43.89;95384.22;5032176;28;20195;-80
2022/03/16 04:12:40;;;;;;;48.53;27.03;;;;;;;9.31;44.09;95395.03;5030924;28;20207;-80
2022/03/16 04:15:07;;;;;;;49.90;27.27;;;;;;;9.35;44.02;95403.25;5031071;28;20210;-78
2022/03/16 04:17:34;;;;;;;44.90;26.03;;;;;;;9.32;43.96;95381.31;5030791;28;20214;-76
2022/03/16 04:20:01;;;;;;;39.43;24.97;;;;;;;9.29;43.82;95374.72;5031699;28;20213;-78
2022/03/16 04:22:28;;;;;;;48.87;26.50;;;;;;;9.34;43.89;95381.22;5030501;28;20191;-78
2022/03/16 04:24:56;;;;;;;44.57;25.70;;;;;;;9.36;43.96;95384.47;5030620;28;20202;-75
2022/03/16 04:27:24;;;;;;;39.93;23.83;;;;;;;9.37;43.93;95384.38;5030348;28;20227;-77
2022/03/16 04:29:51;;;;;;;46.33;24.77;;;;;;;9.38;43.89;95372.41;5030709;28;20199;-76
2022/03/16 04:32:18;;;;;;;44.57;25.13;;;;;;;9.34;44.11;95366.72;5031415;28;20222;-77
2022/03/16 04:34:44;;;;;;;46.20;25.87;;;;;;;9.39;44.18;95376.59;5030636;28;20188;-76
2022/03/16 04:37:11;;;;;;;40.97;24.70;;;;;;;9.38;43.97;95364.75;5030082;28;20224;-76
2022/03/16 04:39:38;;;;;;;40.33;23.80;;;;;;;9.40;44.12;95368.00;5029781;28;20192;-76
2022/03/16 04:42:07;;;;;;;45.87;25.53;;;;;;;9.40;44.23;95362.91;5046646;28;20568;-77
2022/03/16 04:44:34;;;;;;;40.03;23.50;;;;;;;9.41;44.18;95361.97;5049940;28;20187;-77
2022/03/16 04:47:03;;;;;;;39.50;23.80;;;;;;;9.41;44.32;95355.13;5050180;28;20700;-76
2022/03/16 04:49:30;;;;;;;40.87;23.17;;;;;;;9.38;44.27;95349.44;5050029;28;20233;-77
2022/03/16 04:51:57;;;;;;;47.17;24.47;;;;;;;9.36;44.40;95335.97;5042195;28;20646;-76
2022/03/16 04:54:24;;;;;;;44.90;24.17;;;;;;;9.41;44.43;95347.47;5030290;28;20202;-79
2022/03/16 04:56:50;;;;;;;39.63;23.30;;;;;;;9.44;44.32;95344.69;5030383;28;20594;-76
2022/03/16 04:59:18;;;;;;;41.27;24.00;;;;;;;9.40;44.50;95339.91;5030389;28;20196;-75
2022/03/16 05:01:45;;;;;;;40.20;24.13;;;;;;;9.45;44.49;95342.94;5031250;28;20199;-76
2022/03/16 05:04:12;;;;;;;44.60;23.63;;;;;;;9.45;44.44;95342.94;5030033;28;20206;-76
2022/03/16 05:06:39;;;;;;;46.30;23.47;;;;;;;9.47;44.54;95338.53;5030476;28;20639;-77
2022/03/16 05:09:07;;;;;;;38.57;23.77;;;;;;;9.46;44.49;95337.75;5030076;28;20196;-75
2022/03/16 05:11:35;;;;;;;48.70;23.97;;;;;;;9.47;44.21;95333.44;5035792;28;20673;-76
2022/03/16 05:14:02;;;;;;;47.20;25.27;;;;;;;9.43;44.58;95322.63;5047325;28;20218;-76
2022/03/16 05:16:31;;;;;;;42.77;22.70;;;;;;;9.52;44.49;95331.34;5046691;28;20202;-75
2022/03/16 05:18:57;;;;;;;42.00;23.33;;;;;;;9.52;44.57;95327.03;5049206;28;20195;-77
2022/03/16 05:21:24;;;;;;;38.77;23.77;;;;;;;9.55;44.50;95324.28;5050028;28;20187;-77
2022/03/16 05:23:51;;;;;;;43.30;24.40;;;;;;;9.54;44.68;95325.22;5046259;28;20611;-79
2022/03/16 05:26:18;;;;;;;44.37;25.07;;;;;;;9.59;44.64;95321.50;5030166;28;20199;-76
2022/03/16 05:28:45;;;;;;;38.20;23.93;;;;;;;9.58;44.81;95315.56;5029910;28;20188;-79
2022/03/16 05:31:12;;;;;;;42.43;22.70;;;;;;;9.60;44.76;95315.44;5031216;28;20183;-76
2022/03/16 05:33:40;;;;;;;41.53;24.77;;;;;;;9.62;44.85;95306.72;5029431;28;20203;-78
2022/03/16 05:36:07;;;;;;;44.00;24.00;;;;;;;9.65;44.77;95306.50;5029783;28;20194;-76
2022/03/16 05:38:33;;;;;;;41.07;24.40;;;;;;;9.67;44.76;95296.16;5029768;28;20210;-79
2022/03/16 05:41:00;;;;;;;38.37;22.43;;;;;;;9.69;44.77;95302.78;5049554;28;20195;-79
2022/03/16 05:43:27;;;;;;;44.97;23.83;;;;;;;9.72;44.74;95291.53;5049959;28;20190;-80
2022/03/16 05:45:54;;;;;;;47.60;24.50;;;;;;;9.75;44.83;95286.19;5050329;28;20242;-80
2022/03/16 05:48:21;;;;;;;45.57;24.70;;;;;;;9.72;44.87;95266.81;5046799;28;20225;-81
2022/03/16 05:50:49;;;;;;;48.43;25.90;;;;;;;9.71;44.94;95270.28;5042014;28;20199;-81
2022/03/16 05:53:16;;;;;;;41.77;23.93;;;;;;;9.81;44.87;95272.94;5031654;28;20214;-78
2022/03/16 05:55:43;;;;;;;41.43;22.90;;;;;;;9.83;44.84;95273.63;5047896;28;20187;-77
2022/03/16 05:58:10;;;;;;;14.67;9.73;;;;;;;10.18;88.83;95273.44;5051423;28;20183;-76
2022/03/16 06:00:39;;;;;;;14.10;8.50;;;;;;;10.98;92.20;95278.13;5047930;28;20202;-76
2022/03/16 06:03:06;;;;;;;14.27;9.40;;;;;;;11.85;86.54;95276.91;5050668;28;20195;-76
2022/03/16 06:05:33;;;;;;;12.97;9.13;;;;;;;12.66;81.50;95286.03;5048149;28;20260;-75
2022/03/16 06:08:01;;;;;;;15.77;9.43;;;;;;;13.42;77.26;95288.63;5049296;28;20199;-74
2022/03/16 06:10:28;;;;;;;27.20;16.63;;;;;;;13.92;72.37;95290.84;5049876;28;20638;-74
2022/03/16 06:12:57;;;;;;;41.20;17.90;;;;;;;14.10;66.72;95284.94;5047305;28;20226;-73
2022/03/16 06:15:25;;;;;;;32.60;17.03;;;;;;;14.02;61.98;95283.88;5052377;28;20250;-75
2022/03/16 06:17:52;;;;;;;31.60;19.43;;;;;;;13.93;58.67;95279.63;5051895;28;20231;-74
2022/03/16 06:20:19;;;;;;;36.17;19.77;;;;;;;13.78;55.75;95278.50;5052233;28;20195;-73
2022/03/16 06:22:48;;;;;;;38.17;18.83;;;;;;;13.52;54.10;95270.63;5052304;28;20221;-74
2022/03/16 06:25:16;;;;;;;34.17;18.87;;;;;;;13.45;52.48;95285.78;5051800;28;20198;-75
2022/03/16 06:27:43;;;;;;;40.57;21.37;;;;;;;13.29;51.31;95288.94;5047088;28;20551;-75
2022/03/16 06:30:11;;;;;;;44.37;22.23;;;;;;;13.13;50.49;95280.97;5052195;28;20183;-75
2022/03/16 06:32:38;;;;;;;47.60;23.17;;;;;;;12.96;49.64;95285.06;5051646;28;20227;-74
2022/03/16 06:35:06;;;;;;;41.77;24.23;;;;;;;12.79;48.82;95280.63;5052054;28;20568;-74
2022/03/16 06:37:36;;;;;;;44.23;25.43;;;;;;;12.68;48.21;95291.03;5049836;28;20239;-75
2022/03/16 06:40:03;;;;;;;39.43;24.50;;;;;;;12.53;47.68;95295.75;5050532;28;20202;-75
2022/03/16 06:42:31;;;;;;;58.40;28.27;;;;;;;12.40;47.38;95296.03;5051456;28;20195;-74
2022/03/16 06:44:58;;;;;;;56.60;27.73;;;;;;;12.27;46.99;95290.34;5050282;28;20194;-75
2022/03/16 06:47:25;;;;;;;60.70;29.63;;;;;;;12.18;46.79;95291.16;5051695;28;20187;-74
2022/03/16 06:49:52;;;;;;;61.63;30.97;;;;;;;12.07;46.60;95289.50;5050699;28;20239;-75
2022/03/16 06:52:18;;;;;;;62.13;30.80;;;;;;;11.95;46.60;95282.84;5051252;28;20248;-76
2022/03/16 06:54:45;;;;;;;58.40;30.87;;;;;;;11.90;46.38;95296.06;5051610;28;20245;-76
2022/03/16 06:57:14;;;;;;;55.03;32.83;;;;;;;11.74;46.26;95281.16;5051107;28;20194;-77
2022/03/16 06:59:43;;;;;;;67.90;31.37;;;;;;;11.69;46.13;95282.47;5032715;28;20187;-78
2022/03/16 07:02:10;;;;;;;63.17;31.17;;;;;;;11.70;46.03;95294.34;5049057;28;20183;-80
2022/03/16 07:04:37;;;;;;;54.03;32.63;;;;;;;11.63;46.10;95294.06;5046729;28;20183;-83
2022/03/16 07:07:04;;;;;;;58.63;33.20;;;;;;;11.33;46.18;95248.78;5051911;28;20256;-76
2022/03/16 07:09:32;;;;;;;59.80;31.97;;;;;;;11.50;45.80;95285.78;5051260;28;20191;-76
2022/03/16 07:11:59;;;;;;;66.83;30.83;;;;;;;11.47;45.91;95281.72;5047357;28;20197;-85
2022/03/16 07:14:32;;;;;;;65.30;32.10;;;;;;;11.42;45.83;95278.75;5051502;28;20272;-81
2022/03/16 07:17:01;;;;;;;57.93;33.03;;;;;;;11.39;45.80;95278.19;5051574;28;20194;-81
2022/03/16 07:19:29;;;;;;;62.37;31.67;;;;;;;11.20;45.64;95251.56;5051118;28;20198;-78
2022/03/16 07:21:59;;;;;;;60.93;32.10;;;;;;;11.38;45.83;95281.69;5050956;28;20211;-80
2022/03/16 07:24:26;;;;;;;62.23;32.70;;;;;;;11.24;45.48;95263.16;5048504;28;20245;-78
2022/03/16 07:26:55;;;;;;;66.00;31.77;;;;;;;11.39;45.55;95281.53;5050842;28;20248;-76
2022/03/16 07:29:23;;;;;;;56.00;29.70;;;;;;;11.38;45.52;95287.59;5048726;28;20203;-80
2022/03/16 07:31:50;;;;;;;62.97;31.83;;;;;;;11.38;45.60;95281.69;5050807;28;20199;-78
2022/03/16 07:34:18;;;;;;;59.93;32.13;;;;;;;11.41;45.58;95286.56;5051612;28;20721;-78
2022/03/16 07:36:45;;;;;;;74.10;31.90;;;;;;;11.42;45.48;95283.06;5050448;28;20249;-80
2022/03/16 07:39:12;;;;;;;61.10;32.60;;;;;;;11.42;45.42;95276.16;5050382;28;20210;-78
2022/03/16 07:41:40;;;;;;;65.30;33.63;;;;;;;11.44;45.39;95281.16;5050321;28;20195;-78
2022/03/16 07:44:07;;;;;;;70.20;32.77;;;;;;;11.45;45.53;95270.00;5051143;28;20194;-75
2022/03/16 07:46:34;;;;;;;58.93;31.93;;;;;;;11.49;45.38;95261.13;5050201;28;20209;-76
2022/03/16 07:49:01;;;;;;;57.07;33.37;;;;;;;11.52;45.30;95266.78;5051122;28;20187;-78
2022/03/16 07:51:29;;;;;;;54.37;32.63;;;;;;;11.57;45.37;95263.81;5047316;28;20558;-76
2022/03/16 07:53:56;;;;;;;57.97;31.47;;;;;;;11.64;45.21;95264.13;5050831;28;20210;-75
2022/03/16 07:56:23;;;;;;;73.37;32.40;;;;;;;11.71;45.06;95266.03;5049053;28;20194;-79
2022/03/16 07:58:51;;;;;;;61.87;31.77;;;;;;;11.79;45.04;95260.28;5050241;28;20195;-79
2022/03/16 08:01:18;;;;;;;58.87;32.87;;;;;;;11.80;44.84;95246.50;5049816;28;20198;-79
2022/03/16 08:03:45;;;;;;;65.77;34.43;;;;;;;11.93;44.81;95257.34;5050615;28;20206;-76
2022/03/16 08:06:12;;;;;;;66.60;32.23;;;;;;;12.00;44.65;95255.06;5050053;28;20183;-77
2022/03/16 08:08:40;;;;;;;65.73;32.93;;;;;;;12.06;44.50;95262.25;5052493;28;20194;-75
2022/03/16 08:11:08;;;;;;;73.17;32.40;;;;;;;12.05;44.55;95242.69;5050438;28;20196;-75
2022/03/16 08:13:37;;;;;;;66.20;30.73;;;;;;;12.14;44.51;95259.81;5049759;28;20709;-77
2022/03/16 08:16:04;;;;;;;55.83;30.93;;;;;;;12.17;44.49;95254.41;5049403;28;20187;-77
2022/03/16 08:18:31;;;;;;;67.80;31.43;;;;;;;12.24;44.49;95252.94;5048325;28;20214;-75
2022/03/16 08:20:58;;;;;;;51.87;29.00;;;;;;;12.29;44.21;95245.66;5048592;28;20199;-80
2022/03/16 08:23:25;;;;;;;55.10;29.23;;;;;;;12.35;43.89;95249.47;5044887;28;20270;-77
2022/03/16 08:25:53;;;;;;;66.20;31.90;;;;;;;12.32;44.02;95230.94;5048376;28;20195;-75
2022/03/16 08:28:20;;;;;;;59.60;29.87;;;;;;;12.48;43.76;95234.59;5049848;28;20685;-76
2022/03/16 08:30:47;;;;;;;51.73;28.80;;;;;;;12.53;43.63;95229.06;5049983;28;20222;-76
2022/03/16 08:33:15;;;;;;;51.87;28.10;;;;;;;12.61;43.68;95230.91;5047658;28;20671;-77
2022/03/16 08:35:42;;;;;;;46.33;27.23;;;;;;;12.69;43.46;95226.72;5046748;28;20205;-77
2022/03/16 08:38:08;;;;;;;51.67;25.90;;;;;;;12.80;43.28;95228.34;5049586;28;20233;-76
2022/03/16 08:40:36;;;;;;;56.63;25.20;;;;;;;12.89;43.00;95217.25;5049529;28;20313;-77
2022/03/16 08:43:05;;;;;;;39.77;23.43;;;;;;;13.01;42.82;95228.97;5049279;28;20809;-78
2022/03/16 08:45:31;;;;;;;47.47;24.47;;;;;;;13.03;42.46;95221.94;5048102;28;20191;-79
2022/03/16 08:47:58;;;;;;;42.43;21.57;;;;;;;13.21;42.13;95241.75;5048969;28;20187;-81
2022/03/16 08:50:25;;;;;;;41.17;20.63;;;;;;;13.25;41.87;95225.13;5049514;28;20217;-76
2022/03/16 08:52:52;;;;;;;37.93;20.30;;;;;;;13.42;41.68;95228.72;5049404;28;20226;-76
2022/03/16 08:55:19;;;;;;;40.90;20.53;;;;;;;13.50;41.56;95214.22;5049308;28;20219;-77
2022/03/16 08:57:46;;;;;;;42.13;20.93;;;;;;;13.67;41.25;95222.91;5048683;28;20199;-77
2022/03/16 09:00:18;;;;;;;36.37;19.23;;;;;;;13.76;40.70;95216.09;5047699;28;20179;-77
2022/03/16 09:02:45;;;;;;;32.37;18.77;;;;;;;13.90;40.52;95218.19;5047996;28;20229;-78
2022/03/16 09:05:15;;;;;;;40.33;19.97;;;;;;;13.93;40.40;95212.75;5047817;28;20202;-77
2022/03/16 09:07:42;;;;;;;33.10;17.37;;;;;;;14.05;40.28;95226.22;5048166;28;20210;-80
2022/03/16 09:10:10;;;;;;;29.73;16.57;;;;;;;14.00;39.99;95202.72;5047719;28;20206;-79
2022/03/16 09:12:37;;;;;;;28.50;17.03;;;;;;;14.15;39.89;95221.81;5048499;28;20202;-82
2022/03/16 09:15:05;;;;;;;29.67;16.70;;;;;;;14.17;39.71;95216.53;5047633;28;20302;-76
2022/03/16 09:17:33;;;;;;;29.23;15.83;;;;;;;14.20;39.44;95227.31;5049419;28;20581;-74
2022/03/16 09:20:00;;;;;;;29.77;15.83;;;;;;;14.23;39.42;95229.59;5048736;28;20674;-77
2022/03/16 09:22:27;;;;;;;32.17;15.90;;;;;;;14.27;39.13;95230.94;5048437;28;20198;-77
2022/03/16 09:24:56;;;;;;;30.73;15.43;;;;;;;14.34;39.00;95238.06;5047400;28;20190;-75
2022/03/16 09:27:23;;;;;;;35.13;15.27;;;;;;;14.31;38.63;95227.13;5053380;28;20711;-77
2022/03/16 09:29:50;;;;;;;33.17;15.00;;;;;;;14.46;38.74;95235.09;5052717;28;20221;-77
2022/03/16 09:32:18;;;;;;;30.60;15.50;;;;;;;14.54;38.64;95229.25;5053427;28;20195;-76
2022/03/16 09:34:46;;;;;;;29.60;14.80;;;;;;;14.64;38.44;95234.34;5052830;28;20215;-77
2022/03/16 09:37:13;;;;;;;29.23;15.33;;;;;;;14.76;38.22;95239.06;5052792;28;20226;-76
2022/03/16 09:39:40;;;;;;;33.77;14.70;;;;;;;14.86;37.93;95233.84;5053160;28;20195;-78
2022/03/16 09:42:08;;;;;;;31.20;15.50;;;;;;;15.08;37.62;95231.75;5053119;28;20190;-78
2022/03/16 09:44:36;;;;;;;27.43;15.07;;;;;;;15.21;37.48;95227.00;5033236;28;20194;-76
2022/03/16 09:47:04;;;;;;;30.57;15.67;;;;;;;15.32;37.52;95226.72;5052575;28;20183;-77
2022/03/16 09:52:44;;;;;;;24.43;15.67;;;;;;;15.45;37.29;95227.09;4961487;28;20221;-78
2022/03/16 09:55:10;;;;;;;26.77;16.03;;;;;;;15.44;37.18;95215.16;4963810;28;20660;-77
2022/03/16 09:57:37;;;;;;;26.07;16.67;;;;;;;15.44;37.29;95227.25;4958303;28;20205;-76
2022/03/16 10:00:06;;;;;;;34.77;18.17;;;;;;;15.43;37.16;95220.50;4965510;28;20201;-74
2022/03/16 10:02:33;;;;;;;33.87;17.23;;;;;;;15.43;37.13;95217.91;4965843;28;20202;-77
2022/03/16 10:05:01;;;;;;;29.23;16.43;;;;;;;15.42;36.97;95218.88;4959005;28;20197;-75
2022/03/16 10:07:29;;;;;;;43.07;18.20;;;;;;;15.41;37.03;95218.06;4966653;28;20201;-77
2022/03/16 10:15:25;;;;;;;33.77;18.10;;;;;;;15.28;37.05;95208.19;4964036;28;20602;-77
2022/03/16 10:17:59;;;;;;;33.30;17.50;;;;;;;15.21;37.17;95201.22;4966565;28;20197;-78
2022/03/16 10:20:30;;;;;;;45.43;19.57;;;;;;;15.10;37.18;95191.16;4960261;28;20209;-77
2022/03/16 10:23:06;;;;;;;35.80;19.20;;;;;;;15.09;37.18;95198.09;4952647;28;20228;-76
2022/03/16 10:25:35;;;;;;;32.47;19.13;;;;;;;15.03;37.36;95196.13;5003906;28;20196;-77
2022/03/16 10:28:14;;;;;;;44.43;20.57;;;;;;;14.89;37.29;95191.53;5000620;28;20190;-78
2022/03/16 10:30:56;;;;;;;34.50;18.43;;;;;;;14.89;37.23;95197.47;5048608;28;20241;-80
2022/03/16 10:33:25;;;;;;;34.37;19.20;;;;;;;14.84;37.15;95206.63;5051940;28;20222;-79
2022/03/16 10:35:58;;;;;;;33.77;19.73;;;;;;;14.81;37.27;95200.03;5051378;28;20710;-78
2022/03/16 10:38:26;;;;;;;39.03;18.93;;;;;;;14.79;37.38;95209.66;5050512;28;20195;-79
2022/03/16 10:40:56;;;;;;;42.50;20.97;;;;;;;14.79;37.29;95205.31;5051855;28;20814;-76
2022/03/16 10:49:02;;;;;;;34.97;18.13;;;;;;;14.77;37.23;95196.94;4964797;28;20285;-78
2022/03/16 10:51:31;;;;;;;34.70;18.13;;;;;;;14.84;37.04;95204.84;4965126;28;20699;-79
2022/03/16 10:54:00;;;;;;;36.47;19.53;;;;;;;14.90;37.12;95193.16;4958611;28;20602;-78
2022/03/16 10:56:29;;;;;;;40.53;20.73;;;;;;;14.96;37.09;95179.66;4965718;28;20284;-77
2022/03/16 10:58:57;;;;;;;37.07;18.60;;;;;;;14.99;36.90;95172.44;4961860;28;20228;-77
2022/03/16 11:01:25;;;;;;;34.07;19.80;;;;;;;15.05;36.77;95182.13;4962200;28;20210;-77
2022/03/16 11:03:55;;;;;;;35.40;19.97;;;;;;;15.10;36.86;95179.09;4959766;28;20194;-77
2022/03/16 11:06:22;;;;;;;37.30;19.50;;;;;;;15.15;36.83;95163.16;4957687;28;20284;-77
2022/03/16 11:09:43;;;;;;;29.97;17.17;;;;;;;15.18;37.05;95157.72;4964241;28;20212;-80
2022/03/16 11:14:57;;;;;;;37.50;19.57;;;;;;;15.36;36.78;95163.59;4963961;28;20633;-78
2022/03/16 11:17:26;;;;;;;38.60;19.37;;;;;;;15.38;36.94;95153.16;4953078;28;20199;-79
2022/03/16 11:19:53;;;;;;;35.00;19.33;;;;;;;15.40;36.78;95151.19;4963646;28;20635;-79
2022/03/16 11:22:23;;;;;;;28.03;18.80;;;;;;;15.44;36.63;95148.16;4962169;28;20218;-78
2022/03/16 11:24:56;;;;;;;35.73;19.70;;;;;;;15.49;36.62;95138.19;4960619;28;20195;-80
2022/03/16 11:27:35;;;;;;;32.13;18.30;;;;;;;15.57;36.42;95127.88;5046674;28;20660;-79
2022/03/16 11:30:13;;;;;;;31.33;18.83;;;;;;;15.68;36.24;95126.03;5050511;28;20190;-79
2022/03/16 11:32:42;;;;;;;32.17;18.73;;;;;;;15.80;36.18;95122.16;5048175;28;20191;-81
2022/03/16 11:35:12;;;;;;;39.57;19.20;;;;;;;15.93;36.02;95122.53;5050295;28;20673;-83
2022/03/16 11:37:43;;;;;;;30.20;17.60;;;;;;;16.07;35.75;95122.84;5047700;28;20226;-77
2022/03/16 11:40:12;;;;;;;40.87;18.03;;;;;;;16.17;35.63;95119.13;5049137;28;20191;-76
2022/03/16 11:43:19;;;;;;;25.83;15.87;;;;;;;16.45;38.58;95117.03;5050793;28;20215;-76